createdAt,value
2022-11-18T00:01:23.424Z,99408.28
2022-11-18T00:03:53.056Z,99405.13
2022-11-18T00:06:23.110Z,99401.34
2022-11-18T00:08:51.316Z,99396.75
2022-11-18T00:11:36.592Z,99401.34
2022-11-18T00:14:20.623Z,99400.09
2022-11-18T00:16:51.287Z,99399.75
2022-11-18T00:19:20.374Z,99404.44
2022-11-18T00:21:48.554Z,99410.28
2022-11-18T00:24:16.644Z,99411.28
2022-11-18T00:26:46.213Z,99414.72
2022-11-18T00:29:14.769Z,99421.28
2022-11-18T00:31:43.306Z,99418.16
2022-11-18T00:34:13.987Z,99422.81
2022-11-18T00:36:42.259Z,99421.78
2022-11-18T00:39:11.827Z,99415.84
2022-11-18T00:41:57.254Z,99417.13
2022-11-18T00:44:26.759Z,99421.72
2022-11-18T00:46:55.219Z,99422.91
2022-11-18T00:49:23.557Z,99426.34
2022-11-18T00:51:52.762Z,99431.16
2022-11-18T00:54:20.937Z,99424.75
2022-11-18T00:56:49.053Z,99430.66
2022-11-18T00:59:17.531Z,99425.13
2022-11-18T01:01:47.346Z,99423.34
2022-11-18T01:04:15.612Z,99421.91
2022-11-18T01:06:43.788Z,99417.13
2022-11-18T01:09:13.023Z,99417.81
2022-11-18T01:11:58.487Z,99417.44
2022-11-18T01:14:27.494Z,99413.56
2022-11-18T01:16:57.885Z,99414.53
2022-11-18T01:19:26.702Z,99412.19
2022-11-18T01:21:56.535Z,99411.75
2022-11-18T01:24:24.605Z,99414.88
2022-11-18T01:26:52.701Z,99405.25
2022-11-18T01:29:20.919Z,99408.88
2022-11-18T01:32:17.421Z,99412.97
2022-11-18T01:34:38.633Z,99408.81
2022-11-18T01:37:06.769Z,99406.81
2022-11-18T01:39:35.042Z,99403.03
2022-11-18T01:42:03.174Z,99399.81
2022-11-18T01:45:05.232Z,99399.13
2022-11-18T01:47:37.099Z,99397.47
2022-11-18T01:50:08.213Z,99390.94
2022-11-18T01:52:37.158Z,99374.75
2022-11-18T01:55:11.668Z,99388.25
2022-11-18T01:57:40.637Z,99386.59
2022-11-18T02:00:09.753Z,99383.81
2022-11-18T02:02:39.149Z,99386.38
2022-11-18T02:05:11.768Z,99385.56
2022-11-18T02:07:43.015Z,99389.41
2022-11-18T02:10:19.699Z,99381.78
2022-11-18T02:12:48.083Z,99379.00
2022-11-18T02:15:17.641Z,99380.56
2022-11-18T02:17:55.763Z,99376.53
2022-11-18T02:20:43.466Z,99374.19
2022-11-18T02:23:52.810Z,99372.28
2022-11-18T02:26:50.394Z,99382.00
2022-11-18T02:29:22.615Z,99383.81
2022-11-18T02:31:56.697Z,99381.47
2022-11-18T02:34:38.181Z,99381.31
2022-11-18T02:37:14.170Z,99382.78
2022-11-18T02:39:50.044Z,99385.00
2022-11-18T02:42:19.245Z,99379.03
2022-11-18T02:44:54.041Z,99384.59
2022-11-18T02:47:23.454Z,99379.78
2022-11-18T02:49:56.773Z,99376.47
2022-11-18T02:52:27.169Z,99384.06
2022-11-18T02:54:56.940Z,99385.72
2022-11-18T02:57:26.971Z,99390.22
2022-11-18T02:59:56.479Z,99385.31
2022-11-18T03:02:24.860Z,99394.16
2022-11-18T03:04:56.208Z,99386.63
2022-11-18T03:07:29.270Z,99393.66
2022-11-18T03:09:59.806Z,99394.09
2022-11-18T03:12:38.138Z,99398.63
2022-11-18T03:15:20.052Z,99403.44
2022-11-18T03:17:56.973Z,99403.84
2022-11-18T03:20:29.952Z,99398.44
2022-11-18T03:23:05.930Z,99393.44
2022-11-18T03:25:39.118Z,99400.84
2022-11-18T03:28:14.181Z,99392.22
2022-11-18T03:30:48.915Z,99396.13
2022-11-18T03:33:22.848Z,99403.31
2022-11-18T03:35:53.842Z,99405.19
2022-11-18T03:38:28.013Z,99402.84
2022-11-18T03:40:59.829Z,99409.91
2022-11-18T03:43:33.269Z,99410.22
2022-11-18T03:46:08.396Z,99407.28
2022-11-18T03:48:42.880Z,99407.75
2022-11-18T03:51:15.989Z,99411.44
2022-11-18T03:53:49.884Z,99415.97
2022-11-18T03:56:23.892Z,99414.88
2022-11-18T03:58:58.516Z,99414.44
2022-11-18T04:01:34.895Z,99416.91
2022-11-18T04:04:03.337Z,99415.59
2022-11-18T04:06:38.758Z,99412.25
2022-11-18T04:09:13.020Z,99402.34
2022-11-18T04:12:04.625Z,99404.34
2022-11-18T04:14:34.797Z,99402.66
2022-11-18T04:17:09.010Z,99413.91
2022-11-18T04:19:37.345Z,99414.94
2022-11-18T04:22:05.642Z,99409.72
2022-11-18T04:24:34.005Z,99416.84
2022-11-18T04:27:02.702Z,99410.78
2022-11-18T04:29:30.905Z,99415.59
2022-11-18T04:31:59.103Z,99421.22
2022-11-18T04:34:29.122Z,99428.81
2022-11-18T04:36:57.287Z,99434.66
2022-11-18T04:39:25.543Z,99431.72
2022-11-18T04:41:59.464Z,99440.06
2022-11-18T04:44:30.101Z,99444.38
2022-11-18T04:47:01.025Z,99437.72
2022-11-18T04:49:31.048Z,99443.06
2022-11-18T04:51:59.497Z,99450.06
2022-11-18T04:54:28.814Z,99446.69
2022-11-18T04:56:57.361Z,99451.53
2022-11-18T04:59:26.701Z,99455.44
2022-11-18T05:01:56.025Z,99462.03
2022-11-18T05:04:26.347Z,99463.16
2022-11-18T05:06:55.866Z,99468.31
2022-11-18T05:09:30.242Z,99470.72
2022-11-18T05:12:17.098Z,99468.03
2022-11-18T05:14:49.641Z,99468.00
2022-11-18T05:17:19.442Z,99460.34
2022-11-18T05:19:47.763Z,99470.00
2022-11-18T05:22:17.297Z,99468.75
2022-11-18T05:24:45.425Z,99473.91
2022-11-18T05:27:13.985Z,99472.88
2022-11-18T05:29:42.179Z,99472.88
2022-11-18T05:32:10.565Z,99470.84
2022-11-18T05:34:39.054Z,99478.69
2022-11-18T05:37:07.140Z,99484.94
2022-11-18T05:39:36.749Z,99482.09
2022-11-18T05:42:22.368Z,99484.44
2022-11-18T05:44:57.526Z,99481.94
2022-11-18T05:47:26.723Z,99481.06
2022-11-18T05:49:54.936Z,99480.13
2022-11-18T05:52:23.027Z,99480.00
2022-11-18T05:54:52.863Z,99485.44
2022-11-18T05:57:20.945Z,99488.19
2022-11-18T05:59:49.080Z,99484.63
2022-11-18T06:02:20.988Z,99489.09
2022-11-18T06:04:51.705Z,99486.13
2022-11-18T06:07:23.105Z,99484.47
2022-11-18T06:10:02.090Z,99487.84
2022-11-18T06:12:37.300Z,99495.03
2022-11-18T06:15:11.506Z,99500.31
2022-11-18T06:17:43.156Z,99493.94
2022-11-18T06:20:12.118Z,99496.84
2022-11-18T06:22:46.145Z,99501.31
2022-11-18T06:25:16.733Z,99501.19
2022-11-18T06:27:45.511Z,99504.91
2022-11-18T06:30:15.029Z,99497.06
2022-11-18T06:32:43.336Z,99508.91
2022-11-18T06:35:12.010Z,99501.50
2022-11-18T06:37:40.093Z,99506.19
2022-11-18T06:40:09.756Z,99504.50
2022-11-18T06:42:56.725Z,99504.78
2022-11-18T06:45:24.937Z,99495.34
2022-11-18T06:47:52.033Z,99484.78
2022-11-18T06:50:20.366Z,99495.06
2022-11-18T06:52:48.469Z,99493.09
2022-11-18T06:55:16.794Z,99495.28
2022-11-18T06:57:47.257Z,99496.31
2022-11-18T07:00:16.961Z,99502.50
2022-11-18T07:02:45.077Z,99493.84
2022-11-18T07:05:13.216Z,99492.88
2022-11-18T07:07:42.456Z,99487.84
2022-11-18T07:10:11.454Z,99487.56
2022-11-18T07:12:39.605Z,99482.69
2022-11-18T07:15:10.237Z,99477.72
2022-11-18T07:17:38.289Z,99476.09
2022-11-18T07:20:07.193Z,99475.56
2022-11-18T07:22:35.280Z,99480.94
2022-11-18T07:25:03.446Z,99478.47
2022-11-18T07:27:31.515Z,99480.38
2022-11-18T07:29:59.684Z,99479.44
2022-11-18T07:32:29.145Z,99484.44
2022-11-18T07:34:57.246Z,99481.19
2022-11-18T07:37:25.394Z,99481.91
2022-11-18T07:39:53.475Z,99476.72
2022-11-18T07:42:21.535Z,99475.56
2022-11-18T07:44:49.612Z,99474.81
2022-11-18T07:47:17.731Z,99468.66
2022-11-18T07:49:48.269Z,99470.72
2022-11-18T07:52:16.477Z,99473.81
2022-11-18T07:54:44.513Z,99468.25
2022-11-18T07:57:12.557Z,99465.25
2022-11-18T07:59:40.774Z,99468.56
2022-11-18T08:02:12.245Z,99466.34
2022-11-18T08:04:40.725Z,99457.50
2022-11-18T08:07:12.064Z,99453.78
2022-11-18T08:09:40.178Z,99456.97
2022-11-18T08:12:08.565Z,99455.75
2022-11-18T08:14:36.668Z,99461.06
2022-11-18T08:17:04.796Z,99466.56
2022-11-18T08:19:35.440Z,99464.53
2022-11-18T08:22:03.530Z,99472.00
2022-11-18T08:24:33.108Z,99474.84
2022-11-18T08:27:01.229Z,99471.56
2022-11-18T08:29:29.520Z,99474.66
2022-11-18T08:31:57.973Z,99480.38
2022-11-18T08:34:26.156Z,99484.91
2022-11-18T08:36:54.269Z,99484.38
2022-11-18T08:39:22.429Z,99491.34
2022-11-18T08:41:51.934Z,99485.34
2022-11-18T08:44:20.050Z,99476.81
2022-11-18T08:46:48.237Z,99477.97
2022-11-18T08:49:17.017Z,99485.78
2022-11-18T08:51:45.433Z,99486.00
2022-11-18T08:54:13.520Z,99476.81
2022-11-18T08:56:41.960Z,99475.97
2022-11-18T08:59:12.583Z,99480.31
2022-11-18T09:01:42.079Z,99469.22
2022-11-18T09:04:10.416Z,99472.09
2022-11-18T09:06:40.400Z,99464.03
2022-11-18T09:09:09.111Z,99469.25
2022-11-18T09:11:39.744Z,99459.44
2022-11-18T09:16:57.802Z,99457.59
2022-11-18T09:22:14.317Z,99452.56
2022-11-18T09:24:43.610Z,99451.06
2022-11-18T09:27:16.709Z,99450.13
2022-11-18T09:29:45.281Z,99450.72
2022-11-18T09:32:14.978Z,99450.31
2022-11-18T09:34:43.052Z,99440.88
2022-11-18T09:37:11.323Z,99434.50
2022-11-18T09:39:39.458Z,99432.22
2022-11-18T09:42:22.280Z,99424.94
2022-11-18T09:45:08.625Z,99416.47
2022-11-18T09:47:41.417Z,99418.94
2022-11-18T09:50:47.928Z,99419.81
2022-11-18T09:53:12.281Z,99410.25
2022-11-18T09:55:42.273Z,99406.41
2022-11-18T09:58:18.354Z,99401.91
2022-11-18T10:00:46.872Z,99390.22
2022-11-18T10:03:23.842Z,99402.84
2022-11-18T10:05:57.170Z,99398.28
2022-11-18T10:08:29.849Z,99396.47
2022-11-18T10:11:07.994Z,99384.34
2022-11-18T10:13:53.221Z,99383.34
2022-11-18T10:16:42.192Z,99377.41
2022-11-18T10:19:25.701Z,99373.03
2022-11-18T10:22:13.845Z,99376.75
2022-11-18T10:24:50.538Z,99375.16
2022-11-18T10:27:19.419Z,99371.16
2022-11-18T10:29:54.327Z,99366.84
2022-11-18T10:32:22.957Z,99366.16
2022-11-18T10:34:54.077Z,99360.31
2022-11-18T10:37:45.770Z,99367.63
2022-11-18T10:40:26.032Z,99355.66
2022-11-18T10:42:54.181Z,99355.38
2022-11-18T10:45:27.601Z,99353.59
2022-11-18T10:48:04.296Z,99355.84
2022-11-18T10:50:38.530Z,99359.38
2022-11-18T10:53:07.754Z,99360.97
2022-11-18T10:55:35.995Z,99366.72
2022-11-18T10:58:11.527Z,99368.00
2022-11-18T11:00:43.480Z,99359.69
2022-11-18T11:03:37.203Z,99371.44
2022-11-18T11:06:38.032Z,99361.03
2022-11-18T11:09:09.597Z,99354.78
2022-11-18T11:11:40.525Z,99359.16
2022-11-18T11:14:24.836Z,99362.66
2022-11-18T11:17:00.117Z,99356.41
2022-11-18T11:19:34.352Z,99348.06
2022-11-18T11:22:03.862Z,99347.31
2022-11-18T11:24:32.150Z,99347.38
2022-11-18T11:30:18.000Z,99334.97
2022-11-18T11:33:20.131Z,99339.66
2022-11-18T11:35:57.449Z,99333.53
2022-11-18T11:38:40.692Z,99322.03
2022-11-18T11:41:21.060Z,99319.25
2022-11-18T11:43:59.965Z,99315.38
2022-11-18T11:46:39.253Z,99315.88
2022-11-18T11:49:19.179Z,99312.53
2022-11-18T11:51:53.458Z,99319.88
2022-11-18T11:54:34.740Z,99311.81
2022-11-18T11:57:06.458Z,99311.09
2022-11-18T11:59:45.210Z,99310.69
2022-11-18T12:02:33.744Z,99296.84
2022-11-18T12:05:09.645Z,99300.75
2022-11-18T12:07:43.679Z,99300.28
2022-11-18T12:10:33.745Z,99287.81
2022-11-18T12:13:18.499Z,99283.84
2022-11-18T12:16:02.435Z,99275.63
2022-11-18T12:18:38.722Z,99275.09
2022-11-18T12:21:06.927Z,99275.47
2022-11-18T12:23:35.620Z,99273.50
2022-11-18T12:26:07.351Z,99270.31
2022-11-18T12:28:41.432Z,99266.47
2022-11-18T12:31:35.694Z,99268.50
2022-11-18T12:34:20.286Z,99257.66
2022-11-18T12:36:49.054Z,99261.81
2022-11-18T12:39:49.063Z,99263.22
2022-11-18T12:42:57.697Z,99260.75
2022-11-18T12:46:01.935Z,99266.97
2022-11-18T12:48:35.748Z,99255.00
2022-11-18T12:51:12.356Z,99260.41
2022-11-18T12:53:42.498Z,99260.00
2022-11-18T12:56:23.804Z,99254.97
2022-11-18T12:58:55.990Z,99249.94
2022-11-18T13:01:26.848Z,99249.16
2022-11-18T13:04:08.580Z,99243.13
2022-11-18T13:06:39.195Z,99232.69
2022-11-18T13:09:17.085Z,99233.78
2022-11-18T13:11:51.689Z,99235.97
2022-11-18T13:14:44.163Z,99237.13
2022-11-18T13:17:49.504Z,99237.22
2022-11-18T13:20:31.037Z,99233.34
2022-11-18T13:23:19.661Z,99235.91
2022-11-18T13:25:50.194Z,99240.06
2022-11-18T13:28:30.341Z,99254.63
2022-11-18T13:31:06.601Z,99246.25
2022-11-18T13:33:37.505Z,99253.28
2022-11-18T13:36:19.000Z,99258.41
2022-11-18T13:38:57.470Z,99242.25
2022-11-18T13:41:32.773Z,99235.84
2022-11-18T13:44:18.671Z,99240.97
2022-11-18T13:46:52.587Z,99241.53
2022-11-18T13:49:25.409Z,99245.50
2022-11-18T13:51:53.828Z,99239.59
2022-11-18T13:54:25.976Z,99248.34
2022-11-18T13:56:54.768Z,99256.34
2022-11-18T13:59:25.457Z,99245.94
2022-11-18T14:01:57.554Z,99250.13
2022-11-18T14:04:28.506Z,99251.56
2022-11-18T14:07:25.568Z,99247.22
2022-11-18T14:09:56.189Z,99250.91
2022-11-18T14:12:28.830Z,99245.56
2022-11-18T14:15:20.670Z,99252.28
2022-11-18T14:17:59.632Z,99251.13
2022-11-18T14:20:29.377Z,99252.28
2022-11-18T14:22:59.469Z,99250.75
2022-11-18T14:25:31.210Z,99246.63
2022-11-18T14:28:10.460Z,99235.59
2022-11-18T14:30:39.904Z,99234.38
2022-11-18T14:33:14.806Z,99226.16
2022-11-18T14:35:44.811Z,99222.50
2022-11-18T14:38:36.681Z,99229.75
2022-11-18T14:41:04.907Z,99221.66
2022-11-18T14:43:33.062Z,99217.84
2022-11-18T14:46:03.531Z,99207.41
2022-11-18T14:48:33.438Z,99204.28
2022-11-18T14:51:02.020Z,99201.31
2022-11-18T14:53:30.089Z,99198.47
2022-11-18T14:56:00.673Z,99203.31
2022-11-18T14:58:28.791Z,99201.69
2022-11-18T15:00:57.035Z,99195.81
2022-11-18T15:03:25.248Z,99184.84
2022-11-18T15:05:54.726Z,99183.84
2022-11-18T15:08:22.917Z,99180.31
2022-11-18T15:10:51.086Z,99176.78
2022-11-18T15:13:19.208Z,99184.91
2022-11-18T15:15:47.548Z,99183.63
2022-11-18T15:18:15.601Z,99184.06
2022-11-18T15:20:43.774Z,99180.34
2022-11-18T15:23:13.295Z,99180.72
2022-11-18T15:25:41.375Z,99184.88
2022-11-18T15:28:11.309Z,99194.59
2022-11-18T15:30:39.564Z,99183.75
2022-11-18T15:33:07.716Z,99196.69
2022-11-18T15:35:38.665Z,99194.22
2022-11-18T15:38:06.831Z,99181.91
2022-11-18T15:40:36.916Z,99177.44
2022-11-18T15:43:05.091Z,99171.31
2022-11-18T15:45:33.150Z,99178.88
2022-11-18T15:48:01.315Z,99180.34
2022-11-18T15:50:29.557Z,99165.13
2022-11-18T15:52:58.353Z,99162.31
2022-11-18T15:55:26.422Z,99169.50
2022-11-18T15:57:55.906Z,99160.88
2022-11-18T16:00:24.185Z,99163.81
2022-11-18T16:02:52.375Z,99163.13
2022-11-18T16:05:20.416Z,99155.91
2022-11-18T16:07:54.329Z,99148.59
2022-11-18T16:10:42.800Z,99153.38
2022-11-18T16:13:12.312Z,99154.16
2022-11-18T16:15:49.430Z,99163.59
2022-11-18T16:18:19.628Z,99170.66
2022-11-18T16:20:47.840Z,99163.09
2022-11-18T16:23:15.944Z,99159.91
2022-11-18T16:25:47.949Z,99159.63
2022-11-18T16:28:17.493Z,99150.50
2022-11-18T16:31:06.966Z,99153.78
2022-11-18T16:33:35.122Z,99169.56
2022-11-18T16:36:03.386Z,99171.31
2022-11-18T16:38:31.525Z,99176.81
2022-11-18T16:41:00.500Z,99183.03
2022-11-18T16:43:29.985Z,99179.78
2022-11-18T16:45:58.089Z,99177.59
2022-11-18T16:48:26.160Z,99176.31
2022-11-18T16:51:19.311Z,99170.34
2022-11-18T16:53:51.973Z,99160.47
2022-11-18T16:56:20.457Z,99162.38
2022-11-18T16:58:50.408Z,99168.66
2022-11-18T17:01:23.319Z,99169.78
2022-11-18T17:03:55.327Z,99158.09
2022-11-18T17:06:24.695Z,99171.38
2022-11-18T17:08:53.003Z,99158.28
2022-11-18T17:11:21.288Z,99162.88
2022-11-18T17:13:56.337Z,99150.31
2022-11-18T17:16:26.147Z,99159.25
2022-11-18T17:18:58.665Z,99157.41
2022-11-18T17:21:28.215Z,99145.97
2022-11-18T17:23:56.799Z,99141.09
2022-11-18T17:26:26.762Z,99148.22
2022-11-18T17:28:57.821Z,99147.09
2022-11-18T17:31:26.738Z,99137.38
2022-11-18T17:33:56.442Z,99147.50
2022-11-18T17:36:26.403Z,99144.88
2022-11-18T17:38:59.615Z,99146.84
2022-11-18T17:41:46.792Z,99148.81
2022-11-18T17:44:18.681Z,99145.31
2022-11-18T17:46:48.106Z,99145.00
2022-11-18T17:49:18.252Z,99142.47
2022-11-18T17:51:47.176Z,99143.72
2022-11-18T17:54:15.559Z,99146.00
2022-11-18T17:56:44.056Z,99139.53
2022-11-18T17:59:14.588Z,99131.50
2022-11-18T18:01:44.526Z,99132.63
2022-11-18T18:04:14.634Z,99112.69
2022-11-18T18:06:42.830Z,99130.38
2022-11-18T18:09:10.964Z,99128.09
2022-11-18T18:11:39.195Z,99114.88
2022-11-18T18:14:12.899Z,99108.09
2022-11-18T18:16:45.426Z,99111.78
2022-11-18T18:19:16.606Z,99113.13
2022-11-18T18:21:45.512Z,99098.50
2022-11-18T18:24:14.794Z,99105.75
2022-11-18T18:26:42.998Z,99097.66
2022-11-18T18:29:12.393Z,99094.97
2022-11-18T18:31:40.474Z,99104.88
2022-11-18T18:34:09.999Z,99101.94
2022-11-18T18:36:38.120Z,99099.78
2022-11-18T18:39:06.454Z,99091.34
2022-11-18T18:41:34.866Z,99087.22
2022-11-18T18:44:02.967Z,99094.94
2022-11-18T18:46:34.202Z,99096.22
2022-11-18T18:49:05.656Z,99095.84
2022-11-18T18:51:38.089Z,99103.47
2022-11-18T18:54:07.362Z,99099.59
2022-11-18T18:56:35.510Z,99098.16
2022-11-18T18:59:03.645Z,99090.84
2022-11-18T19:01:31.910Z,99084.50
2022-11-18T19:04:01.677Z,99089.38
2022-11-18T19:09:21.906Z,99073.91
2022-11-18T19:12:10.111Z,99104.69
2022-11-18T19:14:38.329Z,99101.94
2022-11-18T19:20:19.382Z,99096.81
2022-11-18T19:22:47.516Z,99084.50
2022-11-18T19:25:19.381Z,99085.59
2022-11-18T19:27:47.482Z,99102.84
2022-11-18T19:30:16.071Z,99110.00
2022-11-18T19:32:44.209Z,99125.72
2022-11-18T19:35:13.041Z,99119.88
2022-11-18T19:37:41.123Z,99115.66
2022-11-18T19:40:11.202Z,99131.38
2022-11-18T19:42:42.356Z,99128.81
2022-11-18T19:45:12.507Z,99120.19
2022-11-18T19:47:40.781Z,99133.25
2022-11-18T19:50:09.714Z,99125.75
2022-11-18T19:52:37.982Z,99117.66
2022-11-18T19:55:08.067Z,99116.22
2022-11-18T19:57:36.227Z,99112.63
2022-11-18T20:00:08.157Z,99111.22
2022-11-18T20:02:36.200Z,99116.34
2022-11-18T20:05:22.142Z,99120.69
2022-11-18T20:07:50.193Z,99117.72
2022-11-18T20:10:18.780Z,99120.28
2022-11-18T20:12:46.893Z,99110.81
2022-11-18T20:15:16.455Z,99110.09
2022-11-18T20:17:44.565Z,99097.47
2022-11-18T20:20:13.032Z,99104.16
2022-11-18T20:22:41.280Z,99098.53
2022-11-18T20:25:10.398Z,99100.59
2022-11-18T20:27:38.442Z,99093.75
2022-11-18T20:30:08.041Z,99094.94
2022-11-18T20:32:37.518Z,99089.84
2022-11-18T20:35:06.395Z,99078.59
2022-11-18T20:37:34.550Z,99085.28
2022-11-18T20:40:02.668Z,99074.47
2022-11-18T20:42:48.688Z,99076.47
2022-11-18T20:45:16.864Z,99078.78
2022-11-18T20:47:46.279Z,99066.53
2022-11-18T20:50:14.498Z,99055.75
2022-11-18T20:52:42.522Z,99072.75
2022-11-18T20:55:11.623Z,99075.84
2022-11-18T20:57:39.657Z,99071.59
2022-11-18T21:00:09.230Z,99083.50
2022-11-18T21:02:37.323Z,99078.84
2022-11-18T21:05:07.701Z,99075.75
2022-11-18T21:07:36.032Z,99091.66
2022-11-18T21:10:04.213Z,99085.63
2022-11-18T21:12:32.326Z,99089.50
2022-11-18T21:14:59.397Z,99097.16
2022-11-18T21:17:27.456Z,99104.88
2022-11-18T21:19:55.650Z,99103.41
2022-11-18T21:22:24.322Z,99108.81
2022-11-18T21:24:52.361Z,99102.13
2022-11-18T21:27:20.488Z,99111.84
2022-11-18T21:29:50.020Z,99105.56
2022-11-18T21:32:18.070Z,99109.03
2022-11-18T21:34:46.162Z,99123.28
2022-11-18T21:37:14.305Z,99127.03
2022-11-18T21:39:43.764Z,99140.97
2022-11-18T21:42:11.873Z,99124.34
2022-11-18T21:44:39.988Z,99137.53
2022-11-18T21:47:08.153Z,99124.28
2022-11-18T21:49:36.221Z,99122.25
2022-11-18T21:52:04.375Z,99123.41
2022-11-18T21:54:35.048Z,99131.75
2022-11-18T21:57:04.578Z,99125.91
2022-11-18T21:59:32.665Z,99124.28
2022-11-18T22:02:00.805Z,99123.44
2022-11-18T22:04:57.704Z,99132.25
2022-11-18T22:07:27.280Z,99136.75
2022-11-18T22:09:55.799Z,99140.56
2022-11-18T22:12:25.355Z,99133.22
2022-11-18T22:14:53.561Z,99127.41
2022-11-18T22:17:21.635Z,99128.56
2022-11-18T22:19:49.717Z,99131.91
2022-11-18T22:22:18.493Z,99121.00
2022-11-18T22:24:46.577Z,99120.53
2022-11-18T22:27:14.670Z,99127.41
2022-11-18T22:29:44.333Z,99123.91
2022-11-18T22:32:12.484Z,99116.84
2022-11-18T22:34:40.574Z,99126.06
2022-11-18T22:37:08.647Z,99122.22
2022-11-18T22:39:36.858Z,99122.22
2022-11-18T22:42:22.640Z,99114.06
2022-11-18T22:44:52.148Z,99114.13
2022-11-18T22:47:21.309Z,99119.56
2022-11-18T22:49:53.497Z,99116.13
2022-11-18T22:52:24.293Z,99113.03
2022-11-18T22:54:52.461Z,99100.00
2022-11-18T22:57:21.639Z,99103.00
2022-11-18T22:59:51.066Z,99109.53
2022-11-18T23:02:19.309Z,99106.91
2022-11-18T23:04:47.412Z,99107.75
2022-11-18T23:07:15.587Z,99104.72
2022-11-18T23:09:43.809Z,99103.97
2022-11-18T23:12:29.531Z,99097.44
2022-11-18T23:14:59.052Z,99111.66
2022-11-18T23:17:27.213Z,99114.03
2022-11-18T23:19:55.390Z,99116.78
2022-11-18T23:22:23.548Z,99119.09
2022-11-18T23:24:51.569Z,99125.53
2022-11-18T23:27:19.714Z,99128.50
2022-11-18T23:29:47.835Z,99123.84
2022-11-18T23:32:17.354Z,99126.88
2022-11-18T23:34:45.379Z,99123.19
2022-11-18T23:37:13.450Z,99127.41
2022-11-18T23:39:41.635Z,99134.47
2022-11-18T23:42:09.753Z,99139.88
2022-11-18T23:44:46.697Z,99124.88
2022-11-18T23:47:15.151Z,99137.53
2022-11-18T23:49:44.597Z,99138.31
2022-11-18T23:52:12.833Z,99149.16
2022-11-18T23:54:41.067Z,99167.66
2022-11-18T23:57:09.287Z,99166.56
2022-11-18T23:59:37.366Z,99165.78
